Hauptseite
METAR-TAF:

METAR-TAF

Flughäfen :

Arnheim, Niederlande

Militärflugplatz Deelen

Breite: 52-04N, Länge: 005-53E, Höhe: 48 m

Beobachtung

Neuester Wetterbericht von vor 23 Minuten, um 08:55 UTC
Wind 9 kt aus West/Südwest, variierte zwischen Südwest und Nord/Nordwest
Temperatur 14°C
Luftfeuchtigkeit 72%
Luftdruck 1014 hPa
Sichtweite 10 km oder mehr
Aufgelockert bewölkt in der Höhe von 2100 ft
Durchbrochene Bewölkung in der Höhe von 2600 ft
Durchbrochene Bewölkung in der Höhe von 3000 ft

METAR: EHDL 230855Z AUTO 24009KT 220V340 9999 SCT021 BKN026 BKN030 14/09 Q1014 WHT

Zeit: 11:18 (09:18 UTC)


TAF: fehlend

Wetterbeobachtungen und Prognosen von mehr als 4000 Flughäfen (METAR und TAF Bericht).

Die verfügbaren Stationen werden durch gelbe und rote Markierungen auf der Karte dargestellt.

Führen Sie die Maus auf sie, um den Namen der Station zu sehen.

Darauf klicken, um die Beobachtung von Wetterbeobachtungen und Prognosen zu sehen.

Um die Karte zu ändern : klicken Sie auf den grünen Tasten mit einem schwarzen Kreuz Zum Vergrößern, auf den grünen Button mit einem Gedankenstrich zu verkleinern, oder auf die grünen Pfeile für benachbarte Karten.


METAR-TAF: